Time;durP1;ratioP1;P1;durP2;ratioP2;P2;SDS_P1;SDS_P2;PMS_P1;PMS_P2;Temp;Humidity;BMP_temperature;BMP_pressure;BME280_temperature;BME280_humidity;BME280_pressure;Samples;Min_cycle;Max_cycle;Signal;HPM_P1;HPM_P2
2023/09/24 00:02:20;;;;;;;4.93;2.65;;;8.60;99.90;;;;;;6139478;22;88257;-77
2023/09/24 00:04:46;;;;;;;4.13;2.38;;;8.60;99.90;;;;;;6137362;22;90389;-77
2023/09/24 00:07:13;;;;;;;4.72;2.42;;;8.60;99.90;;;;;;6137581;22;91904;-78
2023/09/24 00:09:41;;;;;;;7.43;3.15;;;8.60;99.90;;;;;;6141653;22;87718;-78
2023/09/24 00:12:09;;;;;;;7.10;3.13;;;8.60;99.90;;;;;;6139865;22;89376;-77
2023/09/24 00:14:34;;;;;;;3.28;2.53;;;8.60;99.90;;;;;;6138237;22;91028;-78
2023/09/24 00:17:00;;;;;;;8.88;3.40;;;8.50;99.90;;;;;;6140088;22;87759;-76
2023/09/24 00:19:26;;;;;;;6.68;2.88;;;8.50;99.90;;;;;;6141296;22;87340;-77
2023/09/24 00:21:52;;;;;;;6.55;3.33;;;8.50;99.90;;;;;;6140693;22;87433;-78
2023/09/24 00:24:18;;;;;;;6.05;3.30;;;8.40;99.90;;;;;;6168293;22;88512;-79
2023/09/24 00:26:46;;;;;;;3.35;2.78;;;8.40;99.90;;;;;;6149610;22;88541;-75
2023/09/24 00:29:13;;;;;;;9.13;3.53;;;8.40;99.90;;;;;;6139574;22;87454;-78
2023/09/24 00:31:39;;;;;;;6.78;2.88;;;8.40;99.90;;;;;;6145402;22;87834;-78
2023/09/24 00:34:04;;;;;;;7.50;3.05;;;8.40;99.90;;;;;;6169711;22;90873;-77
2023/09/24 00:36:32;;;;;;;5.70;3.22;;;8.30;99.90;;;;;;6139989;22;88303;-76
2023/09/24 00:38:58;;;;;;;5.97;2.88;;;8.30;99.90;;;;;;6140829;22;87638;-76
2023/09/24 00:41:24;;;;;;;4.47;2.85;;;8.30;99.90;;;;;;6155163;22;87451;-77
2023/09/24 00:43:50;;;;;;;5.82;2.28;;;8.30;99.90;;;;;;6160722;22;87646;-78
2023/09/24 00:46:16;;;;;;;4.10;2.50;;;8.30;99.90;;;;;;6139413;22;87916;-77
2023/09/24 00:48:43;;;;;;;5.32;2.60;;;8.30;99.90;;;;;;6140663;22;88038;-77
2023/09/24 00:51:19;;;;;;;6.00;2.60;;;8.20;99.90;;;;;;6164818;22;88452;-77
2023/09/24 00:53:48;;;;;;;6.40;3.03;;;8.20;99.90;;;;;;6150180;22;88631;-76
2023/09/24 00:56:14;;;;;;;5.75;2.78;;;8.20;99.90;;;;;;6138995;22;89447;-76
2023/09/24 00:58:46;;;;;;;5.53;2.75;;;8.20;99.90;;;;;;6146914;22;87823;-77
2023/09/24 01:01:13;;;;;;;8.20;2.83;;;8.10;99.90;;;;;;6169106;22;90567;-77
2023/09/24 01:03:40;;;;;;;6.55;3.00;;;8.10;99.90;;;;;;6166045;22;90684;-77
2023/09/24 01:06:06;;;;;;;5.78;3.20;;;8.10;99.90;;;;;;6164990;22;91105;-77
2023/09/24 01:08:33;;;;;;;7.43;2.97;;;8.10;99.90;;;;;;6158029;22;87132;-78
2023/09/24 01:11:01;;;;;;;5.43;2.90;;;8.10;99.90;;;;;;6170882;22;88050;-78
2023/09/24 01:13:43;;;;;;;9.38;2.92;;;8.00;99.90;;;;;;6170378;22;93898;-77
2023/09/24 01:16:09;;;;;;;5.32;3.05;;;8.00;99.90;;;;;;6169196;22;89547;-79
2023/09/24 01:18:37;;;;;;;9.00;3.13;;;8.00;99.90;;;;;;6169917;22;88033;-77
2023/09/24 01:21:14;;;;;;;5.00;3.22;;;8.00;99.90;;;;;;6171384;22;87366;-77
2023/09/24 01:23:42;;;;;;;6.18;2.78;;;7.90;99.90;;;;;;6170620;22;88439;-78
2023/09/24 01:26:10;;;;;;;7.35;2.80;;;7.90;99.90;;;;;;6156516;22;89262;-78
2023/09/24 01:28:35;;;;;;;6.93;3.00;;;7.90;99.90;;;;;;6140872;22;87730;-78
2023/09/24 01:31:02;;;;;;;6.18;3.03;;;7.90;99.90;;;;;;6142337;22;87599;-76
2023/09/24 01:33:31;;;;;;;6.18;2.97;;;7.90;99.90;;;;;;6142699;22;86794;-77
2023/09/24 01:35:57;;;;;;;5.10;3.20;;;7.90;99.90;;;;;;6163411;22;88581;-77
2023/09/24 01:38:23;;;;;;;6.80;3.20;;;7.90;99.90;;;;;;6154343;22;87338;-77
2023/09/24 01:40:49;;;;;;;5.18;3.00;;;7.90;99.90;;;;;;6137225;22;89874;-77
2023/09/24 01:43:14;;;;;;;7.78;3.50;;;7.90;99.90;;;;;;6140218;22;91629;-78
2023/09/24 01:45:40;;;;;;;6.10;3.17;;;7.90;99.90;;;;;;6170376;22;90784;-77
2023/09/24 01:48:07;;;;;;;9.63;3.58;;;7.80;99.90;;;;;;6147564;22;88001;-78
2023/09/24 01:50:36;;;;;;;5.15;3.30;;;7.80;99.90;;;;;;6137890;22;90627;-77
2023/09/24 01:53:04;;;;;;;5.03;3.20;;;7.80;99.90;;;;;;6149983;22;88269;-78
2023/09/24 01:55:30;;;;;;;5.85;2.72;;;7.80;99.90;;;;;;6166111;22;88644;-76
2023/09/24 01:57:59;;;;;;;6.70;2.55;;;7.80;99.90;;;;;;6141922;22;87080;-76
2023/09/24 02:00:25;;;;;;;8.93;3.20;;;7.80;99.90;;;;;;6141681;22;87559;-77
2023/09/24 02:02:52;;;;;;;4.95;2.92;;;7.70;99.90;;;;;;6162551;22;88652;-78
2023/09/24 02:05:19;;;;;;;9.07;3.60;;;7.70;99.90;;;;;;6155516;22;88720;-77
2023/09/24 02:07:46;;;;;;;5.40;2.80;;;7.70;99.90;;;;;;6139362;22;88100;-76
2023/09/24 02:10:17;;;;;;;6.25;3.40;;;7.70;99.90;;;;;;6141849;22;87837;-77
2023/09/24 02:12:45;;;;;;;5.75;3.33;;;7.70;99.90;;;;;;6171994;22;88609;-77
2023/09/24 02:15:11;;;;;;;9.55;3.33;;;7.70;99.90;;;;;;6144932;22;88789;-76
2023/09/24 02:17:39;;;;;;;13.25;3.38;;;7.70;99.90;;;;;;6163484;22;87958;-78
2023/09/24 02:20:15;;;;;;;4.15;2.83;;;7.60;99.90;;;;;;6138870;22;87810;-77
2023/09/24 02:22:41;;;;;;;7.25;3.75;;;7.60;99.90;;;;;;6138889;22;91106;-77
2023/09/24 02:25:10;;;;;;;10.63;3.58;;;7.60;99.90;;;;;;6141453;22;87430;-77
2023/09/24 02:27:38;;;;;;;7.05;3.00;;;7.60;99.90;;;;;;6170791;22;87432;-77
2023/09/24 02:30:04;;;;;;;8.95;3.25;;;7.60;99.90;;;;;;6151030;22;88561;-77
2023/09/24 02:32:32;;;;;;;7.25;3.40;;;7.50;99.90;;;;;;6146799;22;87592;-77
2023/09/24 02:35:00;;;;;;;8.30;3.50;;;7.50;99.90;;;;;;6153829;22;88294;-76
2023/09/24 02:37:28;;;;;;;8.63;3.10;;;7.50;99.90;;;;;;6164548;22;87601;-77
2023/09/24 02:39:54;;;;;;;8.68;3.30;;;7.50;99.90;;;;;;6141085;22;87482;-77
2023/09/24 02:42:25;;;;;;;7.40;3.40;;;7.50;99.90;;;;;;6163714;22;91667;-78
2023/09/24 02:44:50;;;;;;;8.57;3.13;;;7.50;99.90;;;;;;6108088;22;89924;-77
2023/09/24 02:47:16;;;;;;;6.80;3.45;;;7.50;99.90;;;;;;6160529;22;86800;-77
2023/09/24 02:49:43;;;;;;;5.43;3.13;;;7.50;99.90;;;;;;6139596;22;91252;-77
2023/09/24 02:52:09;;;;;;;4.72;3.13;;;7.40;99.90;;;;;;6140684;22;89582;-78
2023/09/24 02:54:34;;;;;;;4.88;3.47;;;7.40;99.90;;;;;;6163774;22;91365;-76
2023/09/24 02:57:00;;;;;;;5.63;3.50;;;7.40;99.90;;;;;;6137769;22;88028;-78
2023/09/24 02:59:26;;;;;;;4.85;3.53;;;7.40;99.90;;;;;;6162352;22;90578;-77
2023/09/24 03:01:52;;;;;;;4.88;3.28;;;7.40;99.90;;;;;;6138826;22;87965;-77
2023/09/24 03:04:18;;;;;;;7.32;3.25;;;7.40;99.90;;;;;;6141126;22;88033;-77
2023/09/24 03:06:44;;;;;;;7.65;3.42;;;7.40;99.90;;;;;;6168993;22;87323;-77
2023/09/24 03:09:13;;;;;;;7.03;3.30;;;7.40;99.90;;;;;;6144359;22;88133;-76
2023/09/24 03:11:39;;;;;;;7.05;3.28;;;7.40;99.90;;;;;;6163984;22;91229;-77
2023/09/24 03:14:05;;;;;;;7.68;3.63;;;7.40;99.90;;;;;;6150943;22;87416;-77
2023/09/24 03:16:31;;;;;;;5.60;2.95;;;7.30;99.90;;;;;;6170724;22;87454;-76
2023/09/24 03:18:56;;;;;;;3.08;2.55;;;7.30;99.90;;;;;;6170582;22;88708;-77
2023/09/24 03:21:22;;;;;;;6.10;3.00;;;7.30;99.90;;;;;;6170276;22;88876;-75
2023/09/24 03:23:47;;;;;;;4.05;2.80;;;7.30;99.90;;;;;;6170489;22;88982;-76
2023/09/24 03:26:16;;;;;;;4.57;2.88;;;7.30;99.90;;;;;;6170643;22;87366;-77
2023/09/24 03:28:42;;;;;;;7.75;2.90;;;7.20;99.90;;;;;;6168126;22;89467;-76
2023/09/24 03:31:15;;;;;;;7.03;3.58;;;7.20;99.90;;;;;;6169144;22;91335;-77
2023/09/24 03:33:41;;;;;;;6.85;2.83;;;7.20;99.90;;;;;;6169575;22;91917;-76
2023/09/24 03:36:10;;;;;;;4.03;2.60;;;7.20;99.90;;;;;;6144200;22;86899;-77
2023/09/24 03:38:36;;;;;;;5.85;2.70;;;7.20;99.90;;;;;;6138801;22;87642;-77
2023/09/24 03:41:03;;;;;;;3.92;2.42;;;7.20;99.90;;;;;;6139238;22;88501;-77
2023/09/24 03:43:32;;;;;;;7.20;3.00;;;7.20;99.90;;;;;;6141641;22;91793;-77
2023/09/24 03:45:57;;;;;;;8.23;3.03;;;7.20;99.90;;;;;;6170479;22;87964;-77
2023/09/24 03:48:27;;;;;;;5.00;2.78;;;7.20;99.90;;;;;;6139331;22;88546;-77
2023/09/24 03:50:54;;;;;;;6.05;2.50;;;7.20;99.90;;;;;;6163559;22;91739;-76
2023/09/24 03:53:19;;;;;;;6.00;2.50;;;7.10;99.90;;;;;;6139048;22;89060;-76
2023/09/24 03:55:45;;;;;;;5.38;2.65;;;7.20;99.90;;;;;;6147659;22;88021;-77
2023/09/24 03:58:20;;;;;;;5.03;2.47;;;7.10;99.90;;;;;;6169180;22;87610;-76
2023/09/24 04:00:49;;;;;;;5.20;2.45;;;7.20;99.90;;;;;;6165578;22;89479;-76
2023/09/24 04:03:16;;;;;;;5.10;2.50;;;7.10;99.90;;;;;;6139262;22;90277;-76
2023/09/24 04:05:42;;;;;;;7.63;2.50;;;7.10;99.90;;;;;;6138649;22;87764;-77
2023/09/24 04:08:08;;;;;;;9.52;2.70;;;7.10;99.90;;;;;;6138999;22;90303;-77
2023/09/24 04:10:43;;;;;;;6.88;2.38;;;7.10;99.90;;;;;;6140401;22;88668;-76
2023/09/24 04:13:09;;;;;;;4.47;1.92;;;7.10;99.90;;;;;;6138935;22;90621;-78
2023/09/24 04:15:34;;;;;;;4.88;2.55;;;7.10;99.90;;;;;;6142134;22;87879;-76
2023/09/24 04:18:00;;;;;;;5.38;2.33;;;7.10;99.90;;;;;;6140751;22;87385;-76
2023/09/24 04:20:32;;;;;;;5.47;2.63;;;7.10;99.90;;;;;;6139708;22;89088;-76
2023/09/24 04:22:57;;;;;;;6.53;2.55;;;7.10;99.90;;;;;;6140269;22;87959;-78
2023/09/24 04:25:24;;;;;;;7.28;2.65;;;7.10;99.90;;;;;;6138888;22;87509;-76
2023/09/24 04:27:50;;;;;;;5.68;2.45;;;7.10;99.90;;;;;;6140897;22;87620;-76
2023/09/24 04:30:20;;;;;;;3.88;2.00;;;7.10;99.90;;;;;;6139863;22;91689;-76
2023/09/24 04:33:09;;;;;;;7.13;2.40;;;7.10;99.90;;;;;;6142117;22;88648;-77
2023/09/24 04:35:35;;;;;;;5.32;2.35;;;7.10;99.90;;;;;;6140614;22;87581;-77
2023/09/24 04:38:10;;;;;;;4.70;1.90;;;7.10;99.90;;;;;;6139493;22;90513;-76
2023/09/24 04:40:36;;;;;;;3.67;2.20;;;7.10;99.90;;;;;;6139082;22;89837;-78
2023/09/24 04:43:04;;;;;;;8.48;2.20;;;7.10;99.90;;;;;;6140899;22;88128;-77
2023/09/24 04:45:30;;;;;;;6.30;2.15;;;7.10;99.90;;;;;;6142510;22;87577;-78
2023/09/24 04:47:57;;;;;;;9.50;2.40;;;7.10;99.90;;;;;;6140085;22;89433;-76
2023/09/24 04:50:25;;;;;;;4.45;1.92;;;7.10;99.90;;;;;;6143726;22;88191;-77
2023/09/24 04:52:54;;;;;;;6.15;2.70;;;7.10;99.90;;;;;;6148456;22;88069;-78
2023/09/24 04:55:20;;;;;;;6.10;2.50;;;7.10;99.90;;;;;;6142947;22;87658;-77
2023/09/24 04:57:46;;;;;;;8.00;2.92;;;7.10;99.90;;;;;;6145166;22;88449;-77
2023/09/24 05:00:14;;;;;;;8.60;3.00;;;7.10;99.90;;;;;;6144729;22;91791;-78
2023/09/24 05:02:40;;;;;;;8.23;2.90;;;7.10;99.90;;;;;;6143272;22;87592;-77
2023/09/24 05:05:06;;;;;;;9.00;3.25;;;7.20;99.90;;;;;;6153045;22;87855;-79
2023/09/24 05:07:32;;;;;;;8.85;3.03;;;7.20;99.90;;;;;;6165565;22;88557;-77
2023/09/24 05:09:58;;;;;;;7.10;2.90;;;7.20;99.90;;;;;;6168667;22;90677;-79
2023/09/24 05:12:23;;;;;;;8.57;3.17;;;7.30;99.90;;;;;;6141579;22;90536;-81
2023/09/24 05:14:49;;;;;;;10.60;3.03;;;7.30;99.90;;;;;;6169036;22;86877;-81
2023/09/24 05:17:15;;;;;;;5.18;2.63;;;7.30;99.90;;;;;;6160679;22;89592;-79
2023/09/24 05:19:41;;;;;;;9.15;3.10;;;7.30;99.90;;;;;;6171031;22;90619;-77
2023/09/24 05:22:07;;;;;;;7.60;3.30;;;7.30;99.90;;;;;;6143648;22;89414;-76
2023/09/24 05:24:33;;;;;;;5.00;2.83;;;7.30;99.90;;;;;;6178235;22;87744;-78
2023/09/24 05:26:59;;;;;;;9.90;3.17;;;7.30;99.90;;;;;;6152818;22;90659;-81
2023/09/24 05:29:25;;;;;;;9.05;3.30;;;7.30;99.90;;;;;;6169231;22;89667;-79
2023/09/24 05:31:50;;;;;;;6.15;3.03;;;7.30;99.90;;;;;;6156246;22;88288;-77
2023/09/24 05:34:16;;;;;;;7.18;3.65;;;7.30;99.90;;;;;;6175298;22;87646;-78
2023/09/24 05:36:42;;;;;;;7.82;3.30;;;7.20;99.90;;;;;;6173765;22;88038;-78
2023/09/24 05:39:12;;;;;;;8.00;3.20;;;7.20;99.90;;;;;;6174800;22;89946;-77
2023/09/24 05:41:38;;;;;;;6.07;2.70;;;7.30;99.90;;;;;;6149699;22;87596;-78
2023/09/24 05:44:05;;;;;;;5.85;2.65;;;7.30;99.90;;;;;;6149509;22;87463;-77
2023/09/24 05:46:31;;;;;;;7.60;3.38;;;7.30;99.90;;;;;;6164280;22;88600;-77
2023/09/24 05:48:58;;;;;;;4.53;2.10;;;7.30;99.90;;;;;;6192917;22;90208;-78
2023/09/24 05:51:25;;;;;;;7.95;2.28;;;7.30;99.90;;;;;;6155680;22;88163;-76
2023/09/24 05:53:52;;;;;;;7.90;2.95;;;7.40;99.90;;;;;;6173549;22;87531;-77
2023/09/24 05:56:18;;;;;;;9.30;2.65;;;7.40;99.90;;;;;;6151204;22;89437;-77
2023/09/24 05:58:44;;;;;;;6.60;2.50;;;7.40;99.90;;;;;;6150332;22;90436;-78
2023/09/24 06:01:16;;;;;;;13.07;2.72;;;7.40;99.90;;;;;;6152515;22;88983;-79
2023/09/24 06:03:42;;;;;;;6.30;2.65;;;7.50;99.90;;;;;;6155884;22;86836;-80
2023/09/24 06:06:09;;;;;;;5.28;2.47;;;7.50;99.90;;;;;;6155468;22;88013;-78
2023/09/24 06:08:36;;;;;;;7.20;2.58;;;7.50;99.90;;;;;;6143236;22;88008;-78
2023/09/24 06:11:02;;;;;;;4.32;2.45;;;7.60;99.90;;;;;;6165232;22;90185;-78
2023/09/24 06:13:28;;;;;;;5.85;2.53;;;7.60;99.90;;;;;;6142835;22;87822;-78
2023/09/24 06:16:01;;;;;;;4.32;2.53;;;7.60;99.90;;;;;;6146542;22;90223;-77
2023/09/24 06:18:27;;;;;;;6.75;2.83;;;7.70;99.90;;;;;;6161592;22;91584;-78
2023/09/24 06:20:53;;;;;;;8.18;2.65;;;7.70;99.90;;;;;;6152016;22;87667;-76
2023/09/24 06:23:19;;;;;;;6.18;3.10;;;7.80;99.90;;;;;;6153667;22;87644;-77
2023/09/24 06:25:45;;;;;;;4.22;2.92;;;7.80;99.90;;;;;;6141072;22;87418;-77
2023/09/24 06:28:11;;;;;;;6.97;2.42;;;7.90;99.90;;;;;;6143940;22;86868;-77
2023/09/24 06:30:38;;;;;;;5.90;2.90;;;8.00;99.90;;;;;;6152561;22;87534;-78
2023/09/24 06:33:07;;;;;;;8.40;3.13;;;8.00;99.90;;;;;;6144522;22;87771;-73
2023/09/24 06:35:37;;;;;;;8.18;2.70;;;8.10;99.90;;;;;;6156897;22;88068;-74
2023/09/24 06:38:03;;;;;;;9.15;2.97;;;8.10;99.90;;;;;;6158322;22;88229;-73
2023/09/24 06:40:29;;;;;;;7.57;2.92;;;8.30;99.90;;;;;;6138605;22;88193;-74
2023/09/24 06:42:55;;;;;;;8.50;3.17;;;8.30;99.90;;;;;;6139466;22;87731;-75
2023/09/24 06:45:21;;;;;;;9.00;3.10;;;8.40;99.90;;;;;;6167859;22;87637;-74
2023/09/24 06:47:47;;;;;;;12.82;3.33;;;8.50;99.90;;;;;;6169581;22;88083;-74
2023/09/24 06:50:13;;;;;;;6.28;3.25;;;8.60;99.90;;;;;;6154183;22;87837;-74
2023/09/24 06:52:39;;;;;;;9.10;3.92;;;8.70;99.90;;;;;;6138358;22;87517;-73
2023/09/24 06:55:09;;;;;;;9.95;4.30;;;8.80;99.90;;;;;;6139826;22;87591;-73
2023/09/24 06:57:36;;;;;;;10.25;4.43;;;8.90;99.90;;;;;;6170227;22;93248;-73
2023/09/24 07:00:04;;;;;;;9.20;3.53;;;9.00;99.90;;;;;;6145929;22;88748;-73
2023/09/24 07:02:30;;;;;;;10.80;4.10;;;9.20;99.90;;;;;;6140546;22;87906;-73
2023/09/24 07:04:56;;;;;;;9.73;3.35;;;9.30;99.90;;;;;;6138143;22;90035;-74
2023/09/24 07:07:21;;;;;;;13.10;3.38;;;9.40;99.90;;;;;;6139511;22;87606;-75
2023/09/24 07:09:48;;;;;;;10.02;3.78;;;9.60;99.90;;;;;;6139405;22;91279;-75
2023/09/24 07:12:17;;;;;;;19.15;5.13;;;9.60;99.90;;;;;;6135823;22;87703;-74
2023/09/24 07:14:43;;;;;;;8.20;3.30;;;9.80;99.90;;;;;;6159970;22;87725;-74
2023/09/24 07:17:09;;;;;;;10.07;3.42;;;10.00;99.90;;;;;;6156111;22;87206;-74
2023/09/24 07:19:35;;;;;;;8.70;3.55;;;10.20;99.90;;;;;;6138937;22;90649;-74
2023/09/24 07:22:02;;;;;;;10.88;2.95;;;10.30;99.90;;;;;;6139786;22;87554;-75
2023/09/24 07:24:28;;;;;;;7.50;3.17;;;10.40;99.90;;;;;;6167862;22;88731;-74
2023/09/24 07:26:54;;;;;;;9.68;3.08;;;10.60;99.90;;;;;;6148215;22;87731;-74
2023/09/24 07:29:20;;;;;;;6.20;2.65;;;10.70;99.90;;;;;;6162939;22;90574;-74
2023/09/24 07:31:45;;;;;;;8.77;3.03;;;10.90;99.90;;;;;;6146599;22;87836;-74
2023/09/24 07:34:11;;;;;;;10.65;3.00;;;11.00;99.90;;;;;;6192523;22;90196;-75
2023/09/24 07:36:37;;;;;;;9.27;2.40;;;11.10;99.90;;;;;;6169934;22;91583;-75
2023/09/24 07:39:04;;;;;;;8.48;2.35;;;11.20;99.90;;;;;;6143704;22;90943;-75
2023/09/24 07:41:30;;;;;;;7.00;2.28;;;11.40;99.90;;;;;;6136184;22;86764;-75
2023/09/24 07:43:55;;;;;;;6.78;2.10;;;11.40;99.90;;;;;;6139365;22;87357;-75
2023/09/24 07:46:21;;;;;;;9.52;2.92;;;11.60;99.90;;;;;;6144283;22;88380;-77
2023/09/24 07:48:52;;;;;;;9.48;2.10;;;11.70;99.90;;;;;;6175909;22;88661;-78
2023/09/24 07:51:18;;;;;;;6.97;1.90;;;11.80;99.90;;;;;;6157150;22;87203;-80
2023/09/24 07:53:45;;;;;;;8.07;1.90;;;12.00;99.90;;;;;;6153284;22;88387;-81
2023/09/24 07:56:12;;;;;;;7.95;1.95;;;12.10;99.90;;;;;;6152816;22;88822;-82
2023/09/24 07:58:39;;;;;;;8.40;1.83;;;12.30;99.90;;;;;;6163088;22;88465;-81
2023/09/24 08:16:37;;;;;;;4.88;1.35;;;13.20;99.90;;;;;;6143780;22;88799;-81
2023/09/24 08:19:03;;;;;;;8.50;1.90;;;13.30;99.90;;;;;;6197055;22;86897;-80
2023/09/24 08:21:28;;;;;;;6.22;1.70;;;13.50;99.90;;;;;;6190059;22;87990;-80
2023/09/24 08:23:54;;;;;;;4.13;1.30;;;13.60;99.90;;;;;;6169661;22;87915;-79
2023/09/24 08:26:27;;;;;;;4.25;1.20;;;13.70;99.90;;;;;;6150717;22;88006;-78
2023/09/24 08:28:53;;;;;;;3.10;0.98;;;13.90;99.90;;;;;;6151755;22;91556;-79
2023/09/24 08:31:20;;;;;;;9.48;1.20;;;14.00;99.90;;;;;;6174878;22;86707;-80
2023/09/24 08:33:46;;;;;;;5.40;1.17;;;14.10;99.90;;;;;;6152757;22;90376;-78
2023/09/24 08:36:12;;;;;;;4.38;1.15;;;14.20;99.90;;;;;;6150068;22;87424;-77
2023/09/24 08:38:37;;;;;;;2.47;1.00;;;14.40;99.90;;;;;;6143961;22;90375;-76
2023/09/24 08:41:11;;;;;;;4.95;1.00;;;14.50;99.90;;;;;;6141902;22;88114;-79
2023/09/24 08:43:39;;;;;;;4.53;0.80;;;14.60;99.90;;;;;;6142259;22;87328;-77
2023/09/24 08:46:08;;;;;;;4.95;0.90;;;14.80;99.90;;;;;;6164825;22;91680;-73
2023/09/24 08:48:34;;;;;;;3.30;1.10;;;14.90;99.90;;;;;;6168595;22;93561;-75
2023/09/24 08:51:03;;;;;;;3.72;0.90;;;15.00;99.90;;;;;;6174136;22;87133;-75
2023/09/24 08:53:33;;;;;;;1.80;0.65;;;15.20;99.90;;;;;;6164693;22;87871;-76
2023/09/24 08:55:59;;;;;;;2.15;0.70;;;15.20;99.90;;;;;;6173981;22;90872;-75
2023/09/24 08:58:25;;;;;;;6.57;1.02;;;15.40;99.90;;;;;;6169560;22;87915;-73
2023/09/24 09:00:51;;;;;;;6.07;0.93;;;15.50;99.90;;;;;;6170569;22;87781;-75
2023/09/24 09:03:18;;;;;;;2.63;1.10;;;15.60;99.90;;;;;;6193202;22;89472;-74
2023/09/24 09:05:44;;;;;;;3.13;0.70;;;15.70;99.90;;;;;;6167114;22;91372;-73
2023/09/24 09:08:11;;;;;;;3.83;1.13;;;15.80;98.20;;;;;;6169469;22;88469;-74
2023/09/24 09:10:37;;;;;;;2.45;0.70;;;15.90;98.90;;;;;;6168302;22;87479;-74
2023/09/24 09:13:11;;;;;;;5.15;1.10;;;16.10;99.80;;;;;;6171202;22;87938;-74
2023/09/24 09:15:39;;;;;;;3.53;0.98;;;16.20;97.90;;;;;;6169963;22;95499;-74
2023/09/24 09:18:05;;;;;;;3.83;0.95;;;16.30;96.80;;;;;;6169722;22;88411;-73
2023/09/24 09:20:45;;;;;;;4.05;0.77;;;16.50;97.90;;;;;;6173151;22;87144;-73
2023/09/24 09:23:13;;;;;;;5.70;0.90;;;16.60;97.30;;;;;;6172241;22;88068;-74
2023/09/24 09:25:53;;;;;;;3.58;1.20;;;16.70;97.60;;;;;;6171379;22;87901;-73
2023/09/24 09:28:26;;;;;;;3.05;0.65;;;16.80;96.50;;;;;;6168833;22;88471;-74
2023/09/24 09:31:03;;;;;;;3.03;0.73;;;16.90;95.30;;;;;;6173182;22;88081;-74
2023/09/24 09:33:31;;;;;;;4.80;1.13;;;17.00;96.50;;;;;;6171400;22;90673;-75
2023/09/24 09:35:59;;;;;;;6.90;1.45;;;17.10;95.80;;;;;;6172283;22;88855;-74
2023/09/24 09:38:26;;;;;;;3.42;0.50;;;17.30;96.50;;;;;;6170452;22;88301;-73
2023/09/24 09:40:57;;;;;;;3.88;0.75;;;17.40;94.70;;;;;;6170923;22;89813;-73
2023/09/24 09:43:25;;;;;;;1.33;0.63;;;17.50;93.20;;;;;;6171351;22;87342;-72
2023/09/24 09:45:54;;;;;;;2.55;0.70;;;17.60;93.40;;;;;;6170346;22;90714;-74
2023/09/24 09:48:28;;;;;;;2.60;0.50;;;17.70;95.00;;;;;;6171563;22;87518;-74
2023/09/24 09:51:03;;;;;;;4.65;1.13;;;17.80;93.20;;;;;;6172785;22;87421;-73
2023/09/24 09:53:34;;;;;;;10.85;1.70;;;18.00;92.60;;;;;;6169992;22;88367;-74
2023/09/24 09:56:05;;;;;;;2.50;0.80;;;18.10;92.10;;;;;;6173435;22;87443;-74
2023/09/24 09:58:36;;;;;;;4.53;0.70;;;18.20;91.90;;;;;;6176809;22;91480;-73
2023/09/24 10:01:06;;;;;;;3.95;0.70;;;18.30;91.50;;;;;;6177549;22;87454;-74
2023/09/24 10:03:46;;;;;;;3.50;0.80;;;18.40;90.40;;;;;;6173344;22;87489;-74
2023/09/24 10:06:13;;;;;;;3.15;0.82;;;18.40;90.40;;;;;;6170438;22;91421;-74
2023/09/24 10:08:47;;;;;;;2.00;0.68;;;18.50;91.00;;;;;;6171630;22;87888;-74
2023/09/24 10:11:32;;;;;;;6.05;1.50;;;18.60;90.60;;;;;;6173915;22;87114;-74
2023/09/24 10:14:08;;;;;;;3.22;0.60;;;18.70;91.60;;;;;;6170794;22;87576;-74
2023/09/24 10:16:39;;;;;;;2.75;0.57;;;18.80;90.00;;;;;;6170660;22;87591;-74
2023/09/24 10:19:29;;;;;;;4.32;0.98;;;18.90;87.70;;;;;;6171566;22;90248;-73
2023/09/24 10:21:55;;;;;;;4.10;0.63;;;19.00;89.20;;;;;;6167709;22;88416;-74
2023/09/24 10:24:21;;;;;;;1.83;0.75;;;19.00;88.80;;;;;;6166262;22;89264;-73
2023/09/24 10:27:03;;;;;;;1.35;0.60;;;19.10;87.20;;;;;;6140529;22;88340;-74
2023/09/24 10:29:44;;;;;;;2.50;0.60;;;19.20;88.50;;;;;;6139023;22;91116;-74
2023/09/24 10:32:14;;;;;;;4.32;0.73;;;19.30;84.50;;;;;;6141520;22;87917;-73
2023/09/24 10:34:53;;;;;;;2.08;0.60;;;19.40;85.20;;;;;;6139112;22;90912;-74
2023/09/24 10:37:22;;;;;;;1.50;0.60;;;19.40;86.50;;;;;;6163655;22;89810;-73
2023/09/24 10:40:09;;;;;;;3.97;0.82;;;19.50;81.90;;;;;;6140233;22;87815;-73
2023/09/24 10:42:41;;;;;;;2.35;0.70;;;19.60;82.70;;;;;;6163471;22;89300;-73
2023/09/24 10:45:07;;;;;;;3.20;0.75;;;19.70;83.70;;;;;;6136571;22;89179;-73
2023/09/24 10:47:53;;;;;;;3.88;0.63;;;19.80;83.90;;;;;;6163613;22;91625;-72
2023/09/24 10:50:20;;;;;;;2.88;0.75;;;19.90;81.10;;;;;;6157699;22;87917;-72
2023/09/24 10:52:58;;;;;;;4.53;1.00;;;19.90;82.30;;;;;;6169656;22;87382;-73
2023/09/24 10:55:29;;;;;;;3.95;1.08;;;20.00;81.00;;;;;;6170089;22;87294;-73
2023/09/24 10:58:04;;;;;;;3.05;0.80;;;20.00;83.00;;;;;;6171130;22;87671;-73
2023/09/24 11:00:31;;;;;;;2.90;0.60;;;20.10;82.90;;;;;;6168065;22;90850;-73
2023/09/24 11:03:05;;;;;;;3.13;0.95;;;20.30;80.90;;;;;;6170035;22;86882;-73
2023/09/24 11:05:52;;;;;;;3.35;0.88;;;20.50;81.50;;;;;;6167308;22;90139;-75
2023/09/24 11:08:23;;;;;;;7.90;0.90;;;20.50;77.30;;;;;;6166728;22;91645;-73
2023/09/24 11:10:50;;;;;;;2.95;0.98;;;20.60;75.70;;;;;;6167836;22;88453;-73
2023/09/24 11:13:15;;;;;;;3.40;0.82;;;20.60;76.60;;;;;;6170330;22;87829;-75
2023/09/24 11:15:42;;;;;;;3.55;0.95;;;20.70;74.70;;;;;;6169999;22;88082;-73
2023/09/24 11:18:12;;;;;;;2.33;0.70;;;20.70;76.20;;;;;;6170667;22;88074;-73
2023/09/24 11:20:38;;;;;;;1.55;0.68;;;20.80;78.40;;;;;;6170200;22;87754;-74
2023/09/24 11:25:30;;;;;;;2.40;0.52;;;21.00;72.40;;;;;;6175722;22;89264;-78
2023/09/24 11:28:01;;;;;;;2.65;0.60;;;21.00;71.50;;;;;;6202939;22;90093;-79
2023/09/24 11:30:49;;;;;;;3.42;0.80;;;21.20;76.70;;;;;;6178434;22;88103;-81
2023/09/24 11:33:22;;;;;;;6.28;0.80;;;21.30;71.50;;;;;;6170271;22;87672;-76
2023/09/24 11:35:50;;;;;;;2.70;0.85;;;21.40;73.10;;;;;;6169532;22;90474;-76
2023/09/24 11:38:28;;;;;;;4.18;1.00;;;21.50;72.80;;;;;;6169943;22;90764;-75
2023/09/24 11:41:05;;;;;;;3.88;0.95;;;21.60;69.60;;;;;;6171904;22;88415;-76
2023/09/24 11:43:30;;;;;;;2.25;0.93;;;21.70;76.10;;;;;;6172513;22;87617;-76
2023/09/24 11:45:56;;;;;;;2.70;0.98;;;21.90;73.20;;;;;;6198298;22;88640;-79
2023/09/24 11:48:43;;;;;;;2.08;0.52;;;22.00;71.90;;;;;;6166226;22;91775;-75
2023/09/24 11:51:09;;;;;;;1.67;0.70;;;22.10;71.60;;;;;;6167159;22;91029;-75
2023/09/24 11:53:34;;;;;;;3.47;0.70;;;22.30;74.20;;;;;;6142693;22;86857;-74
2023/09/24 11:56:01;;;;;;;2.53;0.60;;;22.40;68.10;;;;;;6143328;22;87660;-77
2023/09/24 11:58:27;;;;;;;3.42;0.70;;;22.50;73.40;;;;;;6142068;22;90832;-77
2023/09/24 12:00:55;;;;;;;1.42;0.60;;;22.70;68.30;;;;;;6143982;22;88789;-76
2023/09/24 12:03:20;;;;;;;2.47;0.80;;;22.80;67.40;;;;;;6144225;22;87809;-76
2023/09/24 12:05:47;;;;;;;1.50;0.65;;;22.80;66.50;;;;;;6147216;22;87899;-76
2023/09/24 12:08:13;;;;;;;2.97;0.80;;;22.80;67.90;;;;;;6139531;22;89949;-76
2023/09/24 12:10:41;;;;;;;3.70;0.60;;;22.90;66.80;;;;;;6140649;22;88407;-76
2023/09/24 12:13:10;;;;;;;4.43;0.88;;;22.90;66.10;;;;;;6142054;22;87890;-76
2023/09/24 12:15:36;;;;;;;3.20;0.73;;;23.00;66.70;;;;;;6141387;22;93032;-76
2023/09/24 12:18:04;;;;;;;2.75;0.90;;;23.00;64.50;;;;;;6142494;22;86914;-75
2023/09/24 12:20:32;;;;;;;2.55;0.60;;;23.00;66.50;;;;;;6140382;22;90518;-75
2023/09/24 12:22:59;;;;;;;4.72;0.80;;;23.20;68.10;;;;;;6142716;22;87810;-76
2023/09/24 12:25:26;;;;;;;4.20;0.75;;;23.40;70.20;;;;;;6140978;22;88561;-75
2023/09/24 12:27:51;;;;;;;2.13;0.80;;;23.60;68.50;;;;;;6140776;22;88520;-75
2023/09/24 12:30:17;;;;;;;3.60;0.90;;;23.80;69.70;;;;;;6161237;22;90333;-75
2023/09/24 12:32:43;;;;;;;1.52;0.68;;;24.00;64.70;;;;;;6141117;22;87630;-75
2023/09/24 12:35:13;;;;;;;2.38;0.80;;;24.00;65.50;;;;;;6164513;22;88233;-76
2023/09/24 12:37:40;;;;;;;1.92;0.70;;;24.20;64.40;;;;;;6140670;22;88302;-75
2023/09/24 12:40:08;;;;;;;2.40;0.70;;;24.20;62.50;;;;;;6139921;22;89527;-75
2023/09/24 12:42:35;;;;;;;5.22;1.40;;;24.00;61.90;;;;;;6141205;22;88061;-76
2023/09/24 12:45:04;;;;;;;1.48;0.50;;;24.20;65.30;;;;;;6160184;22;89287;-75
2023/09/24 12:47:33;;;;;;;3.00;0.85;;;24.30;64.00;;;;;;6142289;22;90067;-76
2023/09/24 12:50:00;;;;;;;2.08;0.60;;;24.60;65.30;;;;;;6142244;22;88473;-75
2023/09/24 12:52:32;;;;;;;2.45;0.85;;;24.70;59.30;;;;;;6139620;22;87214;-77
2023/09/24 12:54:57;;;;;;;3.38;0.70;;;24.60;59.60;;;;;;6142683;22;87991;-76
2023/09/24 12:57:23;;;;;;;2.25;0.90;;;24.80;60.70;;;;;;6142549;22;87708;-77
2023/09/24 12:59:49;;;;;;;2.67;0.88;;;24.90;60.90;;;;;;6165169;22;89873;-76
2023/09/24 13:02:17;;;;;;;2.80;0.85;;;25.10;58.00;;;;;;6142196;22;88210;-75
2023/09/24 13:04:43;;;;;;;2.20;1.00;;;25.30;57.20;;;;;;6165667;22;90305;-76
2023/09/24 13:07:08;;;;;;;1.67;0.90;;;25.50;55.70;;;;;;6142113;22;88243;-76
2023/09/24 13:09:34;;;;;;;3.00;0.80;;;25.70;57.20;;;;;;6142808;22;87681;-77
2023/09/24 13:12:00;;;;;;;2.13;0.82;;;25.90;56.60;;;;;;6165756;22;88042;-76
2023/09/24 13:14:26;;;;;;;1.98;0.80;;;26.00;55.10;;;;;;6140327;22;88517;-76
2023/09/24 13:16:52;;;;;;;2.05;1.02;;;26.00;53.70;;;;;;6141498;22;88460;-76